sensor_id;sensor_type;location;lat;lon;timestamp;temperature;humidity
2463;DHT22;1243;54.298;10.172;2023-02-01T00:01:29;4.20;1.00
2463;DHT22;1243;54.298;10.172;2023-02-01T00:03:55;4.20;1.00
2463;DHT22;1243;54.298;10.172;2023-02-01T00:06:21;4.30;1.00
2463;DHT22;1243;54.298;10.172;2023-02-01T00:08:47;4.30;1.00
2463;DHT22;1243;54.298;10.172;2023-02-01T00:11:12;4.30;1.00
2463;DHT22;1243;54.298;10.172;2023-02-01T00:13:41;4.40;1.00
2463;DHT22;1243;54.298;10.172;2023-02-01T00:16:18;4.40;1.00
2463;DHT22;1243;54.298;10.172;2023-02-01T00:18:49;4.40;1.00
2463;DHT22;1243;54.298;10.172;2023-02-01T00:21:17;4.40;1.00
2463;DHT22;1243;54.298;10.172;2023-02-01T00:23:43;4.40;1.00
2463;DHT22;1243;54.298;10.172;2023-02-01T00:26:18;4.50;1.00
2463;DHT22;1243;54.298;10.172;2023-02-01T00:28:45;4.50;1.00
2463;DHT22;1243;54.298;10.172;2023-02-01T00:31:11;4.50;1.00
2463;DHT22;1243;54.298;10.172;2023-02-01T00:33:37;4.60;1.00
2463;DHT22;1243;54.298;10.172;2023-02-01T00:36:05;4.60;1.00
2463;DHT22;1243;54.298;10.172;2023-02-01T00:38:33;4.60;1.00
2463;DHT22;1243;54.298;10.172;2023-02-01T00:41:04;4.70;1.00
2463;DHT22;1243;54.298;10.172;2023-02-01T00:43:31;4.70;1.00
2463;DHT22;1243;54.298;10.172;2023-02-01T00:45:57;4.80;1.00
2463;DHT22;1243;54.298;10.172;2023-02-01T00:48:23;4.80;1.00
2463;DHT22;1243;54.298;10.172;2023-02-01T00:50:49;4.80;1.00
2463;DHT22;1243;54.298;10.172;2023-02-01T00:53:15;4.90;1.00
2463;DHT22;1243;54.298;10.172;2023-02-01T00:55:40;4.90;1.00
2463;DHT22;1243;54.298;10.172;2023-02-01T00:58:09;5.00;1.00
2463;DHT22;1243;54.298;10.172;2023-02-01T01:00:35;5.10;1.00
2463;DHT22;1243;54.298;10.172;2023-02-01T01:03:01;5.10;1.00
2463;DHT22;1243;54.298;10.172;2023-02-01T01:05:26;5.10;1.00
2463;DHT22;1243;54.298;10.172;2023-02-01T01:07:53;5.10;1.00
2463;DHT22;1243;54.298;10.172;2023-02-01T01:10:19;5.20;1.00
2463;DHT22;1243;54.298;10.172;2023-02-01T01:12:45;5.20;1.00
2463;DHT22;1243;54.298;10.172;2023-02-01T01:15:11;5.20;1.00
2463;DHT22;1243;54.298;10.172;2023-02-01T01:17:36;5.30;1.00
2463;DHT22;1243;54.298;10.172;2023-02-01T01:20:03;5.40;1.00
2463;DHT22;1243;54.298;10.172;2023-02-01T01:22:29;5.30;1.00
2463;DHT22;1243;54.298;10.172;2023-02-01T01:24:55;5.30;1.00
2463;DHT22;1243;54.298;10.172;2023-02-01T01:27:20;5.30;1.00
2463;DHT22;1243;54.298;10.172;2023-02-01T01:29:49;5.30;1.00
2463;DHT22;1243;54.298;10.172;2023-02-01T01:32:15;5.30;1.00
2463;DHT22;1243;54.298;10.172;2023-02-01T01:34:41;5.30;1.00
2463;DHT22;1243;54.298;10.172;2023-02-01T01:37:07;5.30;1.00
2463;DHT22;1243;54.298;10.172;2023-02-01T01:39:32;5.30;1.00
2463;DHT22;1243;54.298;10.172;2023-02-01T01:41:58;5.30;1.00
2463;DHT22;1243;54.298;10.172;2023-02-01T01:47:37;5.30;1.00
2463;DHT22;1243;54.298;10.172;2023-02-01T01:50:06;5.30;1.00
2463;DHT22;1243;54.298;10.172;2023-02-01T01:52:32;5.30;1.00
2463;DHT22;1243;54.298;10.172;2023-02-01T01:54:59;5.30;1.00
2463;DHT22;1243;54.298;10.172;2023-02-01T01:57:32;5.40;1.00
2463;DHT22;1243;54.298;10.172;2023-02-01T02:00:07;5.50;1.00
2463;DHT22;1243;54.298;10.172;2023-02-01T02:02:35;5.50;1.00
2463;DHT22;1243;54.298;10.172;2023-02-01T02:05:01;5.50;1.00
2463;DHT22;1243;54.298;10.172;2023-02-01T02:07:34;5.50;1.00
2463;DHT22;1243;54.298;10.172;2023-02-01T02:10:02;5.50;1.00
2463;DHT22;1243;54.298;10.172;2023-02-01T02:12:31;5.50;1.00
2463;DHT22;1243;54.298;10.172;2023-02-01T02:14:58;5.50;1.00
2463;DHT22;1243;54.298;10.172;2023-02-01T02:17:38;5.50;1.00
2463;DHT22;1243;54.298;10.172;2023-02-01T02:23:22;5.50;1.00
2463;DHT22;1243;54.298;10.172;2023-02-01T02:31:42;5.50;1.00
2463;DHT22;1243;54.298;10.172;2023-02-01T02:45:29;5.50;1.00
2463;DHT22;1243;54.298;10.172;2023-02-01T02:48:19;5.60;1.00
2463;DHT22;1243;54.298;10.172;2023-02-01T02:51:00;5.60;99.90
2463;DHT22;1243;54.298;10.172;2023-02-01T02:53:51;5.60;1.00
2463;DHT22;1243;54.298;10.172;2023-02-01T02:56:37;5.60;1.00
2463;DHT22;1243;54.298;10.172;2023-02-01T02:59:25;5.60;1.00
2463;DHT22;1243;54.298;10.172;2023-02-01T03:02:11;5.60;1.00
2463;DHT22;1243;54.298;10.172;2023-02-01T03:04:56;5.60;1.00
2463;DHT22;1243;54.298;10.172;2023-02-01T03:13:10;5.50;1.00
2463;DHT22;1243;54.298;10.172;2023-02-01T03:15:45;5.60;1.00
2463;DHT22;1243;54.298;10.172;2023-02-01T03:18:29;5.60;1.00
2463;DHT22;1243;54.298;10.172;2023-02-01T03:21:00;5.60;1.00
2463;DHT22;1243;54.298;10.172;2023-02-01T03:23:31;5.60;1.00
2463;DHT22;1243;54.298;10.172;2023-02-01T03:26:00;5.60;1.00
2463;DHT22;1243;54.298;10.172;2023-02-01T03:28:29;5.60;1.00
2463;DHT22;1243;54.298;10.172;2023-02-01T03:30:55;5.60;1.00
2463;DHT22;1243;54.298;10.172;2023-02-01T03:33:23;5.60;1.00
2463;DHT22;1243;54.298;10.172;2023-02-01T03:36:35;5.60;1.00
2463;DHT22;1243;54.298;10.172;2023-02-01T03:41:22;5.60;1.00
2463;DHT22;1243;54.298;10.172;2023-02-01T03:44:02;5.60;1.00
2463;DHT22;1243;54.298;10.172;2023-02-01T03:46:37;5.60;1.00
2463;DHT22;1243;54.298;10.172;2023-02-01T03:49:06;5.70;1.00
2463;DHT22;1243;54.298;10.172;2023-02-01T03:51:36;5.70;1.00
2463;DHT22;1243;54.298;10.172;2023-02-01T03:54:06;5.70;1.00
2463;DHT22;1243;54.298;10.172;2023-02-01T03:56:33;5.70;1.00
2463;DHT22;1243;54.298;10.172;2023-02-01T03:59:01;5.60;1.00
2463;DHT22;1243;54.298;10.172;2023-02-01T04:01:29;5.40;1.00
2463;DHT22;1243;54.298;10.172;2023-02-01T04:03:56;5.30;1.00
2463;DHT22;1243;54.298;10.172;2023-02-01T04:06:21;5.20;1.00
2463;DHT22;1243;54.298;10.172;2023-02-01T04:08:47;5.00;1.00
2463;DHT22;1243;54.298;10.172;2023-02-01T04:11:13;5.00;1.00
2463;DHT22;1243;54.298;10.172;2023-02-01T04:13:38;4.90;1.00
2463;DHT22;1243;54.298;10.172;2023-02-01T04:16:05;4.90;1.00
2463;DHT22;1243;54.298;10.172;2023-02-01T04:18:30;4.80;1.00
2463;DHT22;1243;54.298;10.172;2023-02-01T04:20:56;4.70;1.00
2463;DHT22;1243;54.298;10.172;2023-02-01T04:23:22;4.70;1.00
2463;DHT22;1243;54.298;10.172;2023-02-01T04:25:47;4.60;1.00
2463;DHT22;1243;54.298;10.172;2023-02-01T04:28:13;4.60;1.00
2463;DHT22;1243;54.298;10.172;2023-02-01T04:30:39;4.60;1.00
2463;DHT22;1243;54.298;10.172;2023-02-01T04:33:04;4.50;1.00
2463;DHT22;1243;54.298;10.172;2023-02-01T04:35:34;4.50;1.00
2463;DHT22;1243;54.298;10.172;2023-02-01T04:37:59;4.50;1.00
2463;DHT22;1243;54.298;10.172;2023-02-01T04:40:25;4.50;1.00
2463;DHT22;1243;54.298;10.172;2023-02-01T04:42:51;4.50;1.00
2463;DHT22;1243;54.298;10.172;2023-02-01T04:45:17;4.50;1.00
2463;DHT22;1243;54.298;10.172;2023-02-01T04:47:42;4.50;1.00
2463;DHT22;1243;54.298;10.172;2023-02-01T04:50:08;4.50;1.00
2463;DHT22;1243;54.298;10.172;2023-02-01T04:52:36;4.50;1.00
2463;DHT22;1243;54.298;10.172;2023-02-01T04:55:03;4.50;1.00
2463;DHT22;1243;54.298;10.172;2023-02-01T04:57:29;4.40;1.00
2463;DHT22;1243;54.298;10.172;2023-02-01T04:59:54;4.50;1.00
2463;DHT22;1243;54.298;10.172;2023-02-01T05:02:20;4.50;1.00
2463;DHT22;1243;54.298;10.172;2023-02-01T05:04:46;4.40;1.00
2463;DHT22;1243;54.298;10.172;2023-02-01T05:07:11;4.50;1.00
2463;DHT22;1243;54.298;10.172;2023-02-01T05:09:37;4.50;1.00
2463;DHT22;1243;54.298;10.172;2023-02-01T05:12:03;4.40;1.00
2463;DHT22;1243;54.298;10.172;2023-02-01T05:14:48;4.40;1.00
2463;DHT22;1243;54.298;10.172;2023-02-01T05:17:14;4.40;1.00
2463;DHT22;1243;54.298;10.172;2023-02-01T05:19:40;4.40;1.00
2463;DHT22;1243;54.298;10.172;2023-02-01T05:22:05;4.50;1.00
2463;DHT22;1243;54.298;10.172;2023-02-01T05:24:31;4.50;1.00
2463;DHT22;1243;54.298;10.172;2023-02-01T05:26:57;4.50;1.00
2463;DHT22;1243;54.298;10.172;2023-02-01T05:29:23;4.50;1.00
2463;DHT22;1243;54.298;10.172;2023-02-01T05:31:48;4.50;1.00
2463;DHT22;1243;54.298;10.172;2023-02-01T05:34:15;4.40;1.00
2463;DHT22;1243;54.298;10.172;2023-02-01T05:36:41;4.50;1.00
2463;DHT22;1243;54.298;10.172;2023-02-01T05:39:07;4.50;1.00
2463;DHT22;1243;54.298;10.172;2023-02-01T05:41:32;4.50;1.00
2463;DHT22;1243;54.298;10.172;2023-02-01T05:43:58;4.50;1.00
2463;DHT22;1243;54.298;10.172;2023-02-01T05:46:24;4.60;1.00
2463;DHT22;1243;54.298;10.172;2023-02-01T05:48:49;4.60;1.00
2463;DHT22;1243;54.298;10.172;2023-02-01T05:51:15;4.70;1.00
2463;DHT22;1243;54.298;10.172;2023-02-01T05:53:41;4.70;1.00
2463;DHT22;1243;54.298;10.172;2023-02-01T05:56:07;4.70;1.00
2463;DHT22;1243;54.298;10.172;2023-02-01T05:58:32;4.70;1.00
2463;DHT22;1243;54.298;10.172;2023-02-01T06:01:02;4.80;1.00
2463;DHT22;1243;54.298;10.172;2023-02-01T06:03:28;4.70;1.00
2463;DHT22;1243;54.298;10.172;2023-02-01T06:05:54;4.80;1.00
2463;DHT22;1243;54.298;10.172;2023-02-01T06:08:20;4.80;1.00
2463;DHT22;1243;54.298;10.172;2023-02-01T06:10:46;4.80;1.00
2463;DHT22;1243;54.298;10.172;2023-02-01T06:13:11;4.80;1.00
2463;DHT22;1243;54.298;10.172;2023-02-01T06:15:37;4.70;1.00
2463;DHT22;1243;54.298;10.172;2023-02-01T06:18:04;4.80;1.00
2463;DHT22;1243;54.298;10.172;2023-02-01T06:20:30;4.80;1.00
2463;DHT22;1243;54.298;10.172;2023-02-01T06:22:55;4.90;1.00
2463;DHT22;1243;54.298;10.172;2023-02-01T06:25:21;4.80;1.00
2463;DHT22;1243;54.298;10.172;2023-02-01T06:27:47;4.80;1.00
2463;DHT22;1243;54.298;10.172;2023-02-01T06:30:14;4.80;1.00
2463;DHT22;1243;54.298;10.172;2023-02-01T06:32:39;4.70;1.00
2463;DHT22;1243;54.298;10.172;2023-02-01T06:35:09;4.60;1.00
2463;DHT22;1243;54.298;10.172;2023-02-01T06:37:41;4.60;1.00
2463;DHT22;1243;54.298;10.172;2023-02-01T06:40:08;4.60;1.00
2463;DHT22;1243;54.298;10.172;2023-02-01T06:42:34;4.60;1.00
2463;DHT22;1243;54.298;10.172;2023-02-01T06:44:59;4.60;1.00
2463;DHT22;1243;54.298;10.172;2023-02-01T06:47:25;4.60;1.00
2463;DHT22;1243;54.298;10.172;2023-02-01T06:49:51;4.60;1.00
2463;DHT22;1243;54.298;10.172;2023-02-01T06:52:17;4.50;1.00
2463;DHT22;1243;54.298;10.172;2023-02-01T06:54:42;4.50;1.00
2463;DHT22;1243;54.298;10.172;2023-02-01T06:57:08;4.50;1.00
2463;DHT22;1243;54.298;10.172;2023-02-01T06:59:33;4.50;1.00
2463;DHT22;1243;54.298;10.172;2023-02-01T07:01:59;4.50;1.00
2463;DHT22;1243;54.298;10.172;2023-02-01T07:04:25;4.60;1.00
2463;DHT22;1243;54.298;10.172;2023-02-01T07:06:50;4.60;1.00
2463;DHT22;1243;54.298;10.172;2023-02-01T07:09:16;4.70;1.00
2463;DHT22;1243;54.298;10.172;2023-02-01T07:11:42;4.70;1.00
2463;DHT22;1243;54.298;10.172;2023-02-01T07:14:10;4.70;1.00
2463;DHT22;1243;54.298;10.172;2023-02-01T07:16:36;4.70;1.00
2463;DHT22;1243;54.298;10.172;2023-02-01T07:19:02;4.70;1.00
2463;DHT22;1243;54.298;10.172;2023-02-01T07:21:28;4.70;1.00
2463;DHT22;1243;54.298;10.172;2023-02-01T07:23:54;4.70;1.00
2463;DHT22;1243;54.298;10.172;2023-02-01T07:26:20;4.70;1.00
2463;DHT22;1243;54.298;10.172;2023-02-01T07:28:46;4.70;1.00
2463;DHT22;1243;54.298;10.172;2023-02-01T07:31:14;4.70;1.00
2463;DHT22;1243;54.298;10.172;2023-02-01T07:33:41;4.80;1.00
2463;DHT22;1243;54.298;10.172;2023-02-01T07:36:11;4.80;1.00
2463;DHT22;1243;54.298;10.172;2023-02-01T07:38:38;4.80;1.00
2463;DHT22;1243;54.298;10.172;2023-02-01T07:41:05;4.80;1.00
2463;DHT22;1243;54.298;10.172;2023-02-01T07:43:31;4.90;1.00
2463;DHT22;1243;54.298;10.172;2023-02-01T07:45:58;4.90;1.00
2463;DHT22;1243;54.298;10.172;2023-02-01T07:48:25;5.00;1.00
2463;DHT22;1243;54.298;10.172;2023-02-01T07:51:05;5.00;1.00
2463;DHT22;1243;54.298;10.172;2023-02-01T07:53:33;5.00;1.00
2463;DHT22;1243;54.298;10.172;2023-02-01T07:55:59;5.00;1.00
2463;DHT22;1243;54.298;10.172;2023-02-01T07:58:25;5.10;1.00
2463;DHT22;1243;54.298;10.172;2023-02-01T08:00:52;5.10;1.00
2463;DHT22;1243;54.298;10.172;2023-02-01T08:03:36;5.20;1.00
2463;DHT22;1243;54.298;10.172;2023-02-01T08:06:02;5.30;1.00
2463;DHT22;1243;54.298;10.172;2023-02-01T08:08:27;5.30;1.00
2463;DHT22;1243;54.298;10.172;2023-02-01T08:11:04;5.30;1.00
2463;DHT22;1243;54.298;10.172;2023-02-01T08:13:30;5.40;1.00
2463;DHT22;1243;54.298;10.172;2023-02-01T08:16:00;5.40;1.00
2463;DHT22;1243;54.298;10.172;2023-02-01T08:18:27;5.40;1.00
2463;DHT22;1243;54.298;10.172;2023-02-01T08:20:53;5.40;1.00
2463;DHT22;1243;54.298;10.172;2023-02-01T08:23:19;5.40;1.00
2463;DHT22;1243;54.298;10.172;2023-02-01T08:25:45;5.30;1.00
2463;DHT22;1243;54.298;10.172;2023-02-01T08:28:11;5.30;1.00
2463;DHT22;1243;54.298;10.172;2023-02-01T08:30:37;5.30;1.00
2463;DHT22;1243;54.298;10.172;2023-02-01T08:33:04;5.30;1.00
2463;DHT22;1243;54.298;10.172;2023-02-01T08:35:33;5.30;1.00
2463;DHT22;1243;54.298;10.172;2023-02-01T08:37:59;5.30;1.00
2463;DHT22;1243;54.298;10.172;2023-02-01T08:40:25;5.40;1.00
2463;DHT22;1243;54.298;10.172;2023-02-01T08:42:50;5.40;1.00
2463;DHT22;1243;54.298;10.172;2023-02-01T08:45:17;5.50;1.00
2463;DHT22;1243;54.298;10.172;2023-02-01T08:47:44;5.50;1.00
2463;DHT22;1243;54.298;10.172;2023-02-01T08:50:10;5.70;1.00
2463;DHT22;1243;54.298;10.172;2023-02-01T08:52:36;5.60;1.00
2463;DHT22;1243;54.298;10.172;2023-02-01T08:55:02;5.60;1.00
2463;DHT22;1243;54.298;10.172;2023-02-01T08:57:27;5.60;1.00
2463;DHT22;1243;54.298;10.172;2023-02-01T08:59:53;5.60;1.00
2463;DHT22;1243;54.298;10.172;2023-02-01T09:02:19;5.60;1.00
2463;DHT22;1243;54.298;10.172;2023-02-01T09:04:44;5.70;1.00
2463;DHT22;1243;54.298;10.172;2023-02-01T09:07:10;5.70;99.90
2463;DHT22;1243;54.298;10.172;2023-02-01T09:09:37;5.80;99.90
2463;DHT22;1243;54.298;10.172;2023-02-01T09:12:03;5.90;99.90
2463;DHT22;1243;54.298;10.172;2023-02-01T09:14:29;5.90;99.90
2463;DHT22;1243;54.298;10.172;2023-02-01T09:16:55;5.90;99.90
2463;DHT22;1243;54.298;10.172;2023-02-01T09:19:21;6.00;99.90
2463;DHT22;1243;54.298;10.172;2023-02-01T09:21:46;6.20;99.90
2463;DHT22;1243;54.298;10.172;2023-02-01T09:24:12;6.30;99.90
2463;DHT22;1243;54.298;10.172;2023-02-01T09:26:38;6.40;99.90
2463;DHT22;1243;54.298;10.172;2023-02-01T09:29:04;6.30;99.90
2463;DHT22;1243;54.298;10.172;2023-02-01T09:31:35;6.30;99.90
2463;DHT22;1243;54.298;10.172;2023-02-01T09:34:01;6.40;99.90
2463;DHT22;1243;54.298;10.172;2023-02-01T09:36:27;6.40;99.90
2463;DHT22;1243;54.298;10.172;2023-02-01T09:38:53;6.40;99.90
2463;DHT22;1243;54.298;10.172;2023-02-01T09:41:45;6.40;99.90
2463;DHT22;1243;54.298;10.172;2023-02-01T09:46:55;6.50;99.90
2463;DHT22;1243;54.298;10.172;2023-02-01T09:49:32;6.50;99.90
2463;DHT22;1243;54.298;10.172;2023-02-01T09:52:01;6.40;99.90
2463;DHT22;1243;54.298;10.172;2023-02-01T09:54:41;6.40;99.90
2463;DHT22;1243;54.298;10.172;2023-02-01T09:57:22;6.50;99.90
2463;DHT22;1243;54.298;10.172;2023-02-01T10:00:05;6.50;99.90
2463;DHT22;1243;54.298;10.172;2023-02-01T10:02:39;6.50;99.90
2463;DHT22;1243;54.298;10.172;2023-02-01T10:05:10;6.70;99.90
2463;DHT22;1243;54.298;10.172;2023-02-01T10:08:13;6.70;99.90
2463;DHT22;1243;54.298;10.172;2023-02-01T10:10:49;6.70;99.90
2463;DHT22;1243;54.298;10.172;2023-02-01T10:13:38;6.60;99.90
2463;DHT22;1243;54.298;10.172;2023-02-01T10:21:55;6.80;99.90
2463;DHT22;1243;54.298;10.172;2023-02-01T10:24:53;6.80;99.90
2463;DHT22;1243;54.298;10.172;2023-02-01T10:27:35;6.80;99.90
2463;DHT22;1243;54.298;10.172;2023-02-01T10:30:22;6.70;99.90
2463;DHT22;1243;54.298;10.172;2023-02-01T10:33:17;6.80;99.90
2463;DHT22;1243;54.298;10.172;2023-02-01T10:35:45;6.80;99.90
2463;DHT22;1243;54.298;10.172;2023-02-01T10:38:30;6.90;99.90
2463;DHT22;1243;54.298;10.172;2023-02-01T10:41:02;6.80;99.90
2463;DHT22;1243;54.298;10.172;2023-02-01T10:43:30;6.90;99.90
2463;DHT22;1243;54.298;10.172;2023-02-01T10:45:56;6.90;99.90
2463;DHT22;1243;54.298;10.172;2023-02-01T10:48:22;7.00;99.90
2463;DHT22;1243;54.298;10.172;2023-02-01T10:50:55;7.10;99.90
2463;DHT22;1243;54.298;10.172;2023-02-01T10:56:09;7.10;99.90
2463;DHT22;1243;54.298;10.172;2023-02-01T10:58:36;7.10;99.90
2463;DHT22;1243;54.298;10.172;2023-02-01T11:01:09;7.10;99.90
2463;DHT22;1243;54.298;10.172;2023-02-01T11:03:44;7.00;99.90
2463;DHT22;1243;54.298;10.172;2023-02-01T11:08:42;6.90;99.90
2463;DHT22;1243;54.298;10.172;2023-02-01T11:11:09;6.90;99.90
2463;DHT22;1243;54.298;10.172;2023-02-01T11:13:38;6.80;99.90
2463;DHT22;1243;54.298;10.172;2023-02-01T11:16:05;6.60;99.90
2463;DHT22;1243;54.298;10.172;2023-02-01T11:18:36;6.50;99.90
2463;DHT22;1243;54.298;10.172;2023-02-01T11:21:04;6.10;99.90
2463;DHT22;1243;54.298;10.172;2023-02-01T11:23:31;5.90;99.90
2463;DHT22;1243;54.298;10.172;2023-02-01T11:26:13;5.80;99.90
2463;DHT22;1243;54.298;10.172;2023-02-01T11:28:44;5.80;99.90
2463;DHT22;1243;54.298;10.172;2023-02-01T11:31:13;5.90;99.90
2463;DHT22;1243;54.298;10.172;2023-02-01T11:33:51;6.00;99.90
2463;DHT22;1243;54.298;10.172;2023-02-01T11:36:22;6.10;1.00
2463;DHT22;1243;54.298;10.172;2023-02-01T11:41:40;6.30;1.00
2463;DHT22;1243;54.298;10.172;2023-02-01T11:44:21;6.30;1.00
2463;DHT22;1243;54.298;10.172;2023-02-01T11:46:48;6.40;1.00
2463;DHT22;1243;54.298;10.172;2023-02-01T11:49:25;6.40;1.00
2463;DHT22;1243;54.298;10.172;2023-02-01T11:54:45;6.50;1.00
2463;DHT22;1243;54.298;10.172;2023-02-01T12:05:25;6.50;99.90
2463;DHT22;1243;54.298;10.172;2023-02-01T12:21:22;4.90;99.90
2463;DHT22;1243;54.298;10.172;2023-02-01T12:24:08;5.00;99.90
2463;DHT22;1243;54.298;10.172;2023-02-01T12:40:50;5.00;1.00
2463;DHT22;1243;54.298;10.172;2023-02-01T12:46:19;5.10;1.00
2463;DHT22;1243;54.298;10.172;2023-02-01T12:48:53;5.30;1.00
2463;DHT22;1243;54.298;10.172;2023-02-01T12:51:23;5.30;1.00
2463;DHT22;1243;54.298;10.172;2023-02-01T12:54:04;5.30;1.00
2463;DHT22;1243;54.298;10.172;2023-02-01T12:56:39;5.30;1.00
2463;DHT22;1243;54.298;10.172;2023-02-01T12:59:17;5.40;1.00
2463;DHT22;1243;54.298;10.172;2023-02-01T13:01:58;5.50;1.00
2463;DHT22;1243;54.298;10.172;2023-02-01T13:07:39;5.60;1.00
2463;DHT22;1243;54.298;10.172;2023-02-01T13:10:30;5.70;1.00
2463;DHT22;1243;54.298;10.172;2023-02-01T13:16:10;5.80;1.00
2463;DHT22;1243;54.298;10.172;2023-02-01T13:18:39;5.80;1.00
2463;DHT22;1243;54.298;10.172;2023-02-01T13:21:16;5.90;1.00
2463;DHT22;1243;54.298;10.172;2023-02-01T13:23:46;5.90;1.00
2463;DHT22;1243;54.298;10.172;2023-02-01T13:26:12;5.90;1.00
2463;DHT22;1243;54.298;10.172;2023-02-01T13:34:39;5.30;1.00
2463;DHT22;1243;54.298;10.172;2023-02-01T13:40:41;5.20;1.00
2463;DHT22;1243;54.298;10.172;2023-02-01T13:43:18;5.30;1.00
2463;DHT22;1243;54.298;10.172;2023-02-01T13:45:56;5.30;1.00
2463;DHT22;1243;54.298;10.172;2023-02-01T13:48:47;5.40;1.00
2463;DHT22;1243;54.298;10.172;2023-02-01T13:51:14;5.50;1.00
2463;DHT22;1243;54.298;10.172;2023-02-01T13:53:46;5.40;1.00
2463;DHT22;1243;54.298;10.172;2023-02-01T13:56:14;5.40;1.00
2463;DHT22;1243;54.298;10.172;2023-02-01T13:58:42;5.40;1.00
2463;DHT22;1243;54.298;10.172;2023-02-01T14:01:32;5.30;1.00
2463;DHT22;1243;54.298;10.172;2023-02-01T14:04:01;5.20;1.00
2463;DHT22;1243;54.298;10.172;2023-02-01T14:09:13;5.40;1.00
2463;DHT22;1243;54.298;10.172;2023-02-01T14:11:46;5.50;1.00
2463;DHT22;1243;54.298;10.172;2023-02-01T14:19:29;5.60;1.00
2463;DHT22;1243;54.298;10.172;2023-02-01T14:21:57;5.60;1.00
2463;DHT22;1243;54.298;10.172;2023-02-01T14:26:55;5.60;1.00
2463;DHT22;1243;54.298;10.172;2023-02-01T14:29:39;5.60;1.00
2463;DHT22;1243;54.298;10.172;2023-02-01T14:32:21;5.70;1.00
2463;DHT22;1243;54.298;10.172;2023-02-01T14:40:06;5.80;1.00
2463;DHT22;1243;54.298;10.172;2023-02-01T14:42:45;5.80;1.00
2463;DHT22;1243;54.298;10.172;2023-02-01T14:50:45;5.90;1.00
2463;DHT22;1243;54.298;10.172;2023-02-01T14:55:42;5.80;1.00
2463;DHT22;1243;54.298;10.172;2023-02-01T15:01:26;5.70;1.00
2463;DHT22;1243;54.298;10.172;2023-02-01T15:06:40;5.80;1.00
2463;DHT22;1243;54.298;10.172;2023-02-01T15:09:24;5.80;1.00
2463;DHT22;1243;54.298;10.172;2023-02-01T15:14:31;5.80;1.00
2463;DHT22;1243;54.298;10.172;2023-02-01T15:16:57;5.70;1.00
2463;DHT22;1243;54.298;10.172;2023-02-01T15:19:25;5.70;1.00
2463;DHT22;1243;54.298;10.172;2023-02-01T15:21:53;5.70;1.00
2463;DHT22;1243;54.298;10.172;2023-02-01T15:24:29;5.60;1.00
2463;DHT22;1243;54.298;10.172;2023-02-01T15:27:02;5.60;1.00
2463;DHT22;1243;54.298;10.172;2023-02-01T15:29:29;5.60;1.00
2463;DHT22;1243;54.298;10.172;2023-02-01T15:31:58;5.60;1.00
2463;DHT22;1243;54.298;10.172;2023-02-01T15:34:44;5.60;1.00
2463;DHT22;1243;54.298;10.172;2023-02-01T15:37:13;5.60;1.00
2463;DHT22;1243;54.298;10.172;2023-02-01T15:40:04;5.60;1.00
2463;DHT22;1243;54.298;10.172;2023-02-01T15:42:31;5.70;1.00
2463;DHT22;1243;54.298;10.172;2023-02-01T15:44:57;5.70;1.00
2463;DHT22;1243;54.298;10.172;2023-02-01T15:47:26;5.70;1.00
2463;DHT22;1243;54.298;10.172;2023-02-01T15:49:54;5.70;1.00
2463;DHT22;1243;54.298;10.172;2023-02-01T15:52:22;5.70;1.00
2463;DHT22;1243;54.298;10.172;2023-02-01T15:54:53;5.70;1.00
2463;DHT22;1243;54.298;10.172;2023-02-01T15:57:23;5.70;1.00
2463;DHT22;1243;54.298;10.172;2023-02-01T16:00:00;5.60;1.00
2463;DHT22;1243;54.298;10.172;2023-02-01T16:02:32;5.60;1.00
2463;DHT22;1243;54.298;10.172;2023-02-01T16:04:58;5.60;1.00
2463;DHT22;1243;54.298;10.172;2023-02-01T16:07:29;5.60;1.00
2463;DHT22;1243;54.298;10.172;2023-02-01T16:09:58;5.60;1.00
2463;DHT22;1243;54.298;10.172;2023-02-01T16:15:04;5.70;99.90
2463;DHT22;1243;54.298;10.172;2023-02-01T16:17:30;5.70;99.90
2463;DHT22;1243;54.298;10.172;2023-02-01T16:19:56;5.70;99.90
2463;DHT22;1243;54.298;10.172;2023-02-01T16:22:23;5.80;99.90
2463;DHT22;1243;54.298;10.172;2023-02-01T16:24:49;5.80;99.90
2463;DHT22;1243;54.298;10.172;2023-02-01T16:27:15;5.90;99.90
2463;DHT22;1243;54.298;10.172;2023-02-01T16:29:41;5.90;99.90
2463;DHT22;1243;54.298;10.172;2023-02-01T16:32:17;5.80;99.90
2463;DHT22;1243;54.298;10.172;2023-02-01T16:34:44;5.70;99.90
2463;DHT22;1243;54.298;10.172;2023-02-01T16:37:19;5.60;99.90
2463;DHT22;1243;54.298;10.172;2023-02-01T16:39:46;5.50;1.00
2463;DHT22;1243;54.298;10.172;2023-02-01T16:42:12;5.40;1.00
2463;DHT22;1243;54.298;10.172;2023-02-01T16:44:39;5.50;1.00
2463;DHT22;1243;54.298;10.172;2023-02-01T16:47:23;5.50;1.00
2463;DHT22;1243;54.298;10.172;2023-02-01T16:49:49;5.50;1.00
2463;DHT22;1243;54.298;10.172;2023-02-01T16:52:18;5.50;1.00
2463;DHT22;1243;54.298;10.172;2023-02-01T16:54:45;5.50;1.00
2463;DHT22;1243;54.298;10.172;2023-02-01T16:57:13;5.60;1.00
2463;DHT22;1243;54.298;10.172;2023-02-01T16:59:39;5.50;1.00
2463;DHT22;1243;54.298;10.172;2023-02-01T17:02:05;5.60;1.00
2463;DHT22;1243;54.298;10.172;2023-02-01T17:04:31;5.50;1.00
2463;DHT22;1243;54.298;10.172;2023-02-01T17:06:57;5.60;99.90
2463;DHT22;1243;54.298;10.172;2023-02-01T17:09:23;5.70;99.90
2463;DHT22;1243;54.298;10.172;2023-02-01T17:11:50;5.70;99.90
2463;DHT22;1243;54.298;10.172;2023-02-01T17:14:18;5.80;99.90
2463;DHT22;1243;54.298;10.172;2023-02-01T17:16:47;5.80;99.90
2463;DHT22;1243;54.298;10.172;2023-02-01T17:19:15;5.80;99.90
2463;DHT22;1243;54.298;10.172;2023-02-01T17:21:48;5.80;99.90
2463;DHT22;1243;54.298;10.172;2023-02-01T17:24:20;5.80;99.90
2463;DHT22;1243;54.298;10.172;2023-02-01T17:26:46;5.80;99.90
2463;DHT22;1243;54.298;10.172;2023-02-01T17:29:14;5.90;99.90
2463;DHT22;1243;54.298;10.172;2023-02-01T17:31:45;5.90;99.90
2463;DHT22;1243;54.298;10.172;2023-02-01T17:34:13;5.80;99.90
2463;DHT22;1243;54.298;10.172;2023-02-01T17:36:41;5.80;99.90
2463;DHT22;1243;54.298;10.172;2023-02-01T17:39:07;5.80;99.90
2463;DHT22;1243;54.298;10.172;2023-02-01T17:41:33;5.70;99.90
2463;DHT22;1243;54.298;10.172;2023-02-01T17:44:00;5.70;99.90
2463;DHT22;1243;54.298;10.172;2023-02-01T17:46:26;5.70;99.90
2463;DHT22;1243;54.298;10.172;2023-02-01T17:48:53;5.60;99.90
2463;DHT22;1243;54.298;10.172;2023-02-01T17:51:24;5.60;99.90
2463;DHT22;1243;54.298;10.172;2023-02-01T17:53:51;5.60;99.90
2463;DHT22;1243;54.298;10.172;2023-02-01T17:56:20;5.60;99.90
2463;DHT22;1243;54.298;10.172;2023-02-01T17:58:46;5.60;99.90
2463;DHT22;1243;54.298;10.172;2023-02-01T18:01:14;5.70;99.90
2463;DHT22;1243;54.298;10.172;2023-02-01T18:03:40;5.60;99.90
2463;DHT22;1243;54.298;10.172;2023-02-01T18:06:14;5.70;99.90
2463;DHT22;1243;54.298;10.172;2023-02-01T18:08:40;5.70;99.90
2463;DHT22;1243;54.298;10.172;2023-02-01T18:11:11;5.70;99.90
2463;DHT22;1243;54.298;10.172;2023-02-01T18:13:38;5.70;99.90
2463;DHT22;1243;54.298;10.172;2023-02-01T18:16:04;5.80;99.90
2463;DHT22;1243;54.298;10.172;2023-02-01T18:18:30;5.80;99.90
2463;DHT22;1243;54.298;10.172;2023-02-01T18:20:58;5.80;99.90
2463;DHT22;1243;54.298;10.172;2023-02-01T18:23:24;5.80;99.90
2463;DHT22;1243;54.298;10.172;2023-02-01T18:25:51;5.80;99.90
2463;DHT22;1243;54.298;10.172;2023-02-01T18:28:18;5.80;99.90
2463;DHT22;1243;54.298;10.172;2023-02-01T18:30:46;5.70;99.90
2463;DHT22;1243;54.298;10.172;2023-02-01T18:33:14;5.80;99.90
2463;DHT22;1243;54.298;10.172;2023-02-01T18:35:40;5.80;99.90
2463;DHT22;1243;54.298;10.172;2023-02-01T18:38:07;5.70;99.90
2463;DHT22;1243;54.298;10.172;2023-02-01T18:43:09;5.70;99.90
2463;DHT22;1243;54.298;10.172;2023-02-01T18:45:40;5.70;99.90
2463;DHT22;1243;54.298;10.172;2023-02-01T18:48:08;5.70;99.90
2463;DHT22;1243;54.298;10.172;2023-02-01T18:50:37;5.70;99.90
2463;DHT22;1243;54.298;10.172;2023-02-01T18:53:14;5.60;99.90